sensor_id;sensor_type;location;lat;lon;timestamp;P1;P2;P0
82817;PMS5003;72572;46.824;-71.222;2024-02-28T00:02:08;10.23;8.68;5.23
82817;PMS5003;72572;46.824;-71.222;2024-02-28T00:04:34;21.25;21.25;12.5
82817;PMS5003;72572;46.824;-71.222;2024-02-28T00:07:01;14.38;13.33;8
82817;PMS5003;72572;46.824;-71.222;2024-02-28T00:09:23;9.52;9.48;5.52
82817;PMS5003;72572;46.824;-71.222;2024-02-28T00:11:50;13.9;13.05;9.05
82817;PMS5003;72572;46.824;-71.222;2024-02-28T00:14:13;11.43;10.29;5.52
82817;PMS5003;72572;46.824;-71.222;2024-02-28T00:16:41;17.19;15.95;11.24
82817;PMS5003;72572;46.824;-71.222;2024-02-28T00:19:05;20.05;16.9;11.43
82817;PMS5003;72572;46.824;-71.222;2024-02-28T00:21:30;10.95;9.9;7.38
82817;PMS5003;72572;46.824;-71.222;2024-02-28T00:23:57;13.67;9.14;5.9
82817;PMS5003;72572;46.824;-71.222;2024-02-28T00:26:22;7.52;7.43;4.95
82817;PMS5003;72572;46.824;-71.222;2024-02-28T00:28:46;7.19;6.14;5.38
82817;PMS5003;72572;46.824;-71.222;2024-02-28T00:31:11;6.57;6.1;4.9
82817;PMS5003;72572;46.824;-71.222;2024-02-28T00:33:38;11.43;10;4.9
82817;PMS5003;72572;46.824;-71.222;2024-02-28T00:36:05;8.09;7.86;4.82
82817;PMS5003;72572;46.824;-71.222;2024-02-28T00:38:29;9.38;8.81;4.62
82817;PMS5003;72572;46.824;-71.222;2024-02-28T00:40:55;9.05;8.95;5
82817;PMS5003;72572;46.824;-71.222;2024-02-28T00:43:18;6.14;5.38;4
82817;PMS5003;72572;46.824;-71.222;2024-02-28T00:45:44;10.29;8.95;5
82817;PMS5003;72572;46.824;-71.222;2024-02-28T00:48:10;9;7.9;4.1
82817;PMS5003;72572;46.824;-71.222;2024-02-28T00:50:36;5.52;5.52;3.57
82817;PMS5003;72572;46.824;-71.222;2024-02-28T00:53:02;10.05;8.27;4.41
82817;PMS5003;72572;46.824;-71.222;2024-02-28T00:55:25;6.29;5.67;3.33
82817;PMS5003;72572;46.824;-71.222;2024-02-28T00:57:51;10.48;9.14;5.48
82817;PMS5003;72572;46.824;-71.222;2024-02-28T01:00:18;6.86;6.86;5.24
82817;PMS5003;72572;46.824;-71.222;2024-02-28T01:02:43;10.67;10.14;5.24
82817;PMS5003;72572;46.824;-71.222;2024-02-28T01:05:08;7.71;6;4.76
82817;PMS5003;72572;46.824;-71.222;2024-02-28T01:07:32;9.52;9.29;4.9
82817;PMS5003;72572;46.824;-71.222;2024-02-28T01:10:00;10.68;9.27;5.45
82817;PMS5003;72572;46.824;-71.222;2024-02-28T01:12:23;8.38;7.05;4.95
82817;PMS5003;72572;46.824;-71.222;2024-02-28T01:14:50;10.48;9;5
82817;PMS5003;72572;46.824;-71.222;2024-02-28T01:17:14;6.52;5.86;4.05
82817;PMS5003;72572;46.824;-71.222;2024-02-28T01:19:40;10.86;10.86;6.52
82817;PMS5003;72572;46.824;-71.222;2024-02-28T01:22:06;10.95;9;4.38
82817;PMS5003;72572;46.824;-71.222;2024-02-28T01:24:32;9.52;9.52;6.95
82817;PMS5003;72572;46.824;-71.222;2024-02-28T01:26:57;6.23;6.23;4
82817;PMS5003;72572;46.824;-71.222;2024-02-28T01:29:23;8.43;6.52;3.81
82817;PMS5003;72572;46.824;-71.222;2024-02-28T01:31:46;5.9;5.38;4.24
82817;PMS5003;72572;46.824;-71.222;2024-02-28T01:34:12;9.76;8.67;5.05
82817;PMS5003;72572;46.824;-71.222;2024-02-28T01:36:39;7.19;7.19;5
82817;PMS5003;72572;46.824;-71.222;2024-02-28T01:39:04;7.29;7.29;5.05
82817;PMS5003;72572;46.824;-71.222;2024-02-28T01:41:29;6.71;5.86;2.48
82817;PMS5003;72572;46.824;-71.222;2024-02-28T01:43:56;6.18;5.73;3.55
82817;PMS5003;72572;46.824;-71.222;2024-02-28T01:46:22;8.67;7.57;3.95
82817;PMS5003;72572;46.824;-71.222;2024-02-28T01:48:45;9.24;7.95;5.19
82817;PMS5003;72572;46.824;-71.222;2024-02-28T01:51:12;12.7;11.7;5.7
82817;PMS5003;72572;46.824;-71.222;2024-02-28T01:53:36;35.68;28.68;15.47
82817;PMS5003;72572;46.824;-71.222;2024-02-28T01:56:01;13.24;10.81;7.24
82817;PMS5003;72572;46.824;-71.222;2024-02-28T01:58:28;4.86;4.86;2.38
82817;PMS5003;72572;46.824;-71.222;2024-02-28T02:00:54;14.59;11.86;6.36
82817;PMS5003;72572;46.824;-71.222;2024-02-28T02:03:19;9.19;5.76;3.1
82817;PMS5003;72572;46.824;-71.222;2024-02-28T02:05:43;9.1;8.2;4.9
82817;PMS5003;72572;46.824;-71.222;2024-02-28T02:08:07;10.24;9.57;5.38
82817;PMS5003;72572;46.824;-71.222;2024-02-28T02:10:34;73.78;53.28;30.89
82817;PMS5003;72572;46.824;-71.222;2024-02-28T02:13:03;11.29;11.29;8.67
82817;PMS5003;72572;46.824;-71.222;2024-02-28T02:15:25;10.45;10.15;5.75
82817;PMS5003;72572;46.824;-71.222;2024-02-28T02:17:51;14.81;14.71;9.76
82817;PMS5003;72572;46.824;-71.222;2024-02-28T02:20:16;22.7;19.15;11.75
82817;PMS5003;72572;46.824;-71.222;2024-02-28T02:22:40;10.76;9.62;6
82817;PMS5003;72572;46.824;-71.222;2024-02-28T02:25:07;18.75;17.35;12.7
82817;PMS5003;72572;46.824;-71.222;2024-02-28T02:27:33;14.71;11.76;7.48
82817;PMS5003;72572;46.824;-71.222;2024-02-28T02:29:59;14.7;14.4;9.45
82817;PMS5003;72572;46.824;-71.222;2024-02-28T02:32:22;29.25;27.7;17.55
82817;PMS5003;72572;46.824;-71.222;2024-02-28T02:34:48;28.81;25.71;16.38
82817;PMS5003;72572;46.824;-71.222;2024-02-28T02:37:14;21.1;19.15;12
82817;PMS5003;72572;46.824;-71.222;2024-02-28T02:39:38;48.85;39.35;26.35
82817;PMS5003;72572;46.824;-71.222;2024-02-28T02:42:05;24.85;21.1;13.65
82817;PMS5003;72572;46.824;-71.222;2024-02-28T02:44:31;21.85;20.2;13
82817;PMS5003;72572;46.824;-71.222;2024-02-28T02:46:54;21.35;17.85;12.6
82817;PMS5003;72572;46.824;-71.222;2024-02-28T02:49:20;17.6;16.9;11.8
82817;PMS5003;72572;46.824;-71.222;2024-02-28T02:51:46;12.73;11.86;6.45
82817;PMS5003;72572;46.824;-71.222;2024-02-28T02:54:12;24.3;22.25;13.25
82817;PMS5003;72572;46.824;-71.222;2024-02-28T02:56:40;13.95;13.2;8.5
82817;PMS5003;72572;46.824;-71.222;2024-02-28T02:59:03;13.1;12.6;8
82817;PMS5003;72572;46.824;-71.222;2024-02-28T03:01:27;16.9;12.9;9.05
82817;PMS5003;72572;46.824;-71.222;2024-02-28T03:03:54;21.55;15;9.1
82817;PMS5003;72572;46.824;-71.222;2024-02-28T03:06:17;16.2;14.4;9
82817;PMS5003;72572;46.824;-71.222;2024-02-28T03:08:43;19.8;17.95;11.05
82817;PMS5003;72572;46.824;-71.222;2024-02-28T03:11:10;13.52;12.38;7.38
82817;PMS5003;72572;46.824;-71.222;2024-02-28T03:13:33;11.86;10.29;6
82817;PMS5003;72572;46.824;-71.222;2024-02-28T03:16:00;9.1;9.1;5.95
82817;PMS5003;72572;46.824;-71.222;2024-02-28T03:18:25;8.76;7.14;4.76
82817;PMS5003;72572;46.824;-71.222;2024-02-28T03:20:51;9.29;9.19;5.81
82817;PMS5003;72572;46.824;-71.222;2024-02-28T03:23:17;12.48;11.05;6.38
82817;PMS5003;72572;46.824;-71.222;2024-02-28T03:25:42;15;11.48;5.52
82817;PMS5003;72572;46.824;-71.222;2024-02-28T03:28:06;11.71;10;6
82817;PMS5003;72572;46.824;-71.222;2024-02-28T03:30:33;6.76;6.48;4.52
82817;PMS5003;72572;46.824;-71.222;2024-02-28T03:32:56;9.57;8.71;5.24
82817;PMS5003;72572;46.824;-71.222;2024-02-28T03:35:22;10.14;8.57;5.24
82817;PMS5003;72572;46.824;-71.222;2024-02-28T03:37:48;10.86;9.67;6
82817;PMS5003;72572;46.824;-71.222;2024-02-28T03:40:21;11.41;9.32;6.14
82817;PMS5003;72572;46.824;-71.222;2024-02-28T03:42:47;9.86;7.41;5
82817;PMS5003;72572;46.824;-71.222;2024-02-28T03:45:14;6.24;5.05;3.1
82817;PMS5003;72572;46.824;-71.222;2024-02-28T03:47:37;8.57;6.71;5
82817;PMS5003;72572;46.824;-71.222;2024-02-28T03:50:04;8.57;8.05;5
82817;PMS5003;72572;46.824;-71.222;2024-02-28T03:52:27;13.43;10.95;6.14
82817;PMS5003;72572;46.824;-71.222;2024-02-28T03:54:55;11.29;8.33;6.14
82817;PMS5003;72572;46.824;-71.222;2024-02-28T03:57:20;10.73;10.73;6.05
82817;PMS5003;72572;46.824;-71.222;2024-02-28T03:59:47;8.33;6.14;4.24
82817;PMS5003;72572;46.824;-71.222;2024-02-28T04:02:10;9.33;9;5
82817;PMS5003;72572;46.824;-71.222;2024-02-28T04:04:35;12.19;10.95;5
82817;PMS5003;72572;46.824;-71.222;2024-02-28T04:07:02;13.62;11.57;6.9
82817;PMS5003;72572;46.824;-71.222;2024-02-28T04:09:25;12.76;10.29;6.19
82817;PMS5003;72572;46.824;-71.222;2024-02-28T04:11:52;13.24;12.62;8.81
82817;PMS5003;72572;46.824;-71.222;2024-02-28T04:14:18;21.29;17.1;9.86
82817;PMS5003;72572;46.824;-71.222;2024-02-28T04:16:43;16.8;14.5;8.85
82817;PMS5003;72572;46.824;-71.222;2024-02-28T04:19:08;16.1;15.7;10
82817;PMS5003;72572;46.824;-71.222;2024-02-28T04:21:32;27.7;19.9;12
82817;PMS5003;72572;46.824;-71.222;2024-02-28T04:23:57;44.06;38.06;23.17
82817;PMS5003;72572;46.824;-71.222;2024-02-28T04:26:25;20.75;19;11.7
82817;PMS5003;72572;46.824;-71.222;2024-02-28T04:28:51;18.9;18.14;10.24
82817;PMS5003;72572;46.824;-71.222;2024-02-28T04:31:16;37.48;29.29;16.48
82817;PMS5003;72572;46.824;-71.222;2024-02-28T04:33:42;19.95;16.89;12.47
82817;PMS5003;72572;46.824;-71.222;2024-02-28T04:36:05;39.63;35.16;24
82817;PMS5003;72572;46.824;-71.222;2024-02-28T04:38:31;17.75;15.4;9.5
82817;PMS5003;72572;46.824;-71.222;2024-02-28T04:40:57;9.81;9.81;5.24
82817;PMS5003;72572;46.824;-71.222;2024-02-28T04:43:20;10.38;9.38;5
82817;PMS5003;72572;46.824;-71.222;2024-02-28T04:45:47;10.19;9.33;6.05
82817;PMS5003;72572;46.824;-71.222;2024-02-28T04:48:13;7.32;7.27;4.64
82817;PMS5003;72572;46.824;-71.222;2024-02-28T04:50:39;6.29;5.86;3.9
82817;PMS5003;72572;46.824;-71.222;2024-02-28T04:53:05;30.2;28.1;18.45
82817;PMS5003;72572;46.824;-71.222;2024-02-28T04:55:30;7.57;7.29;4.05
82817;PMS5003;72572;46.824;-71.222;2024-02-28T04:57:53;13.71;10.29;5.38
82817;PMS5003;72572;46.824;-71.222;2024-02-28T05:00:19;31.6;30.35;18.5
82817;PMS5003;72572;46.824;-71.222;2024-02-28T05:02:46;8.24;7.95;5.1
82817;PMS5003;72572;46.824;-71.222;2024-02-28T05:05:12;8.86;6;4
82817;PMS5003;72572;46.824;-71.222;2024-02-28T05:07:38;9.52;8.33;5.1
82817;PMS5003;72572;46.824;-71.222;2024-02-28T05:10:01;8;7.24;3.86
82817;PMS5003;72572;46.824;-71.222;2024-02-28T05:12:28;8.67;7.33;3.62
82817;PMS5003;72572;46.824;-71.222;2024-02-28T05:14:54;16.29;15;9.33
82817;PMS5003;72572;46.824;-71.222;2024-02-28T05:17:17;9.86;8.86;6
82817;PMS5003;72572;46.824;-71.222;2024-02-28T05:19:42;12.95;11.57;6.81
82817;PMS5003;72572;46.824;-71.222;2024-02-28T05:22:24;10.32;9.14;5.59
82817;PMS5003;72572;46.824;-71.222;2024-02-28T05:24:49;17.71;16.86;10.1
82817;PMS5003;72572;46.824;-71.222;2024-02-28T05:27:13;11.86;10;5.76
82817;PMS5003;72572;46.824;-71.222;2024-02-28T05:29:39;12.24;9.33;6.29
82817;PMS5003;72572;46.824;-71.222;2024-02-28T05:32:04;12;11.1;5.38
82817;PMS5003;72572;46.824;-71.222;2024-02-28T05:34:31;9.43;8.9;5
82817;PMS5003;72572;46.824;-71.222;2024-02-28T05:36:54;10;8.62;5.1
82817;PMS5003;72572;46.824;-71.222;2024-02-28T05:39:23;20.23;15;9.68
82817;PMS5003;72572;46.824;-71.222;2024-02-28T05:41:46;18.33;16.62;9
82817;PMS5003;72572;46.824;-71.222;2024-02-28T05:44:12;21.1;20;13.7
82817;PMS5003;72572;46.824;-71.222;2024-02-28T05:46:38;32.05;24.67;17
82817;PMS5003;72572;46.824;-71.222;2024-02-28T05:49:04;18.38;16.14;9.24
82817;PMS5003;72572;46.824;-71.222;2024-02-28T05:51:27;22.25;21.1;14.3
82817;PMS5003;72572;46.824;-71.222;2024-02-28T05:53:53;8.62;8.38;4.76
82817;PMS5003;72572;46.824;-71.222;2024-02-28T05:56:19;16.5;13.77;8.23
82817;PMS5003;72572;46.824;-71.222;2024-02-28T05:58:44;19.95;16.52;9.19
82817;PMS5003;72572;46.824;-71.222;2024-02-28T06:01:10;22;20.81;13.05
82817;PMS5003;72572;46.824;-71.222;2024-02-28T06:03:34;33.06;30.33;17.44
82817;PMS5003;72572;46.824;-71.222;2024-02-28T06:06:01;14.62;12.05;6.24
82817;PMS5003;72572;46.824;-71.222;2024-02-28T06:08:24;15.76;12.95;8.43
82817;PMS5003;72572;46.824;-71.222;2024-02-28T06:10:51;13.76;11.33;6
82817;PMS5003;72572;46.824;-71.222;2024-02-28T06:13:16;9.32;9.09;5
82817;PMS5003;72572;46.824;-71.222;2024-02-28T06:15:43;16.57;12.71;6.19
82817;PMS5003;72572;46.824;-71.222;2024-02-28T06:18:06;12.95;11.71;7.24
82817;PMS5003;72572;46.824;-71.222;2024-02-28T06:20:32;12;9.62;5.24
82817;PMS5003;72572;46.824;-71.222;2024-02-28T06:22:56;12.81;10.05;6
82817;PMS5003;72572;46.824;-71.222;2024-02-28T06:25:24;13.14;12.1;8.48
82817;PMS5003;72572;46.824;-71.222;2024-02-28T06:27:49;16.52;12.9;7.05
82817;PMS5003;72572;46.824;-71.222;2024-02-28T06:30:16;16.45;12.23;7.27
82817;PMS5003;72572;46.824;-71.222;2024-02-28T06:32:38;11.62;10.57;5.38
82817;PMS5003;72572;46.824;-71.222;2024-02-28T06:35:06;11.29;9.86;5.67
82817;PMS5003;72572;46.824;-71.222;2024-02-28T06:37:29;9.67;9.67;4.9
82817;PMS5003;72572;46.824;-71.222;2024-02-28T06:39:55;16.76;13.86;8.52
82817;PMS5003;72572;46.824;-71.222;2024-02-28T06:42:21;14.62;10.43;7.71
82817;PMS5003;72572;46.824;-71.222;2024-02-28T06:44:45;12.52;12.52;7.33
82817;PMS5003;72572;46.824;-71.222;2024-02-28T06:47:13;16.14;11.38;6.19
82817;PMS5003;72572;46.824;-71.222;2024-02-28T06:49:36;14.29;12.43;7.14
82817;PMS5003;72572;46.824;-71.222;2024-02-28T06:52:02;9.52;9.38;5.62
82817;PMS5003;72572;46.824;-71.222;2024-02-28T06:54:28;11.76;10.05;5.9
82817;PMS5003;72572;46.824;-71.222;2024-02-28T06:56:53;13.19;12.38;7.76
82817;PMS5003;72572;46.824;-71.222;2024-02-28T06:59:19;15.67;13.81;8.43
82817;PMS5003;72572;46.824;-71.222;2024-02-28T07:01:43;13.71;12.48;5.43
82817;PMS5003;72572;46.824;-71.222;2024-02-28T07:04:09;19.95;14.91;9.36
82817;PMS5003;72572;46.824;-71.222;2024-02-28T07:06:36;19.55;17.25;11.4
82817;PMS5003;72572;46.824;-71.222;2024-02-28T07:09:02;13.24;11.1;5.95
82817;PMS5003;72572;46.824;-71.222;2024-02-28T07:11:25;12.48;11.29;7.1
82817;PMS5003;72572;46.824;-71.222;2024-02-28T07:13:50;18.85;14.55;8.7
82817;PMS5003;72572;46.824;-71.222;2024-02-28T07:16:15;14.48;13.29;6.33
82817;PMS5003;72572;46.824;-71.222;2024-02-28T07:18:40;14.45;12.35;6.3
82817;PMS5003;72572;46.824;-71.222;2024-02-28T07:21:06;12.82;11.68;5.68
82817;PMS5003;72572;46.824;-71.222;2024-02-28T07:23:33;19.9;18.29;10.33
82817;PMS5003;72572;46.824;-71.222;2024-02-28T07:25:59;30.55;29.3;20
82817;PMS5003;72572;46.824;-71.222;2024-02-28T07:28:22;20.14;17.62;9.38
82817;PMS5003;72572;46.824;-71.222;2024-02-28T07:30:48;17.19;14.62;8.14
82817;PMS5003;72572;46.824;-71.222;2024-02-28T07:33:14;16.62;14.43;9.29
82817;PMS5003;72572;46.824;-71.222;2024-02-28T07:35:45;28.2;24.95;16.9
82817;PMS5003;72572;46.824;-71.222;2024-02-28T07:38:05;20.77;17.5;11.18
82817;PMS5003;72572;46.824;-71.222;2024-02-28T07:40:29;22.65;15.4;9.2
82817;PMS5003;72572;46.824;-71.222;2024-02-28T07:42:56;17.86;15.95;9.05
82817;PMS5003;72572;46.824;-71.222;2024-02-28T07:45:22;20.24;18.24;11.33
82817;PMS5003;72572;46.824;-71.222;2024-02-28T07:47:47;21.86;20.9;12.05
82817;PMS5003;72572;46.824;-71.222;2024-02-28T07:50:13;23.35;21.9;13.4
82817;PMS5003;72572;46.824;-71.222;2024-02-28T07:52:38;28.5;25.6;17.7
82817;PMS5003;72572;46.824;-71.222;2024-02-28T07:55:05;20.32;17;12.36
82817;PMS5003;72572;46.824;-71.222;2024-02-28T07:57:28;20.57;19.62;13.76
82817;PMS5003;72572;46.824;-71.222;2024-02-28T07:59:54;21.24;19.86;11.29
82817;PMS5003;72572;46.824;-71.222;2024-02-28T08:02:18;20.95;19.76;12.95
82817;PMS5003;72572;46.824;-71.222;2024-02-28T08:04:44;32.33;31.05;20.67
82817;PMS5003;72572;46.824;-71.222;2024-02-28T08:07:09;49.55;44.5;30.4
82817;PMS5003;72572;46.824;-71.222;2024-02-28T08:09:36;38.2;35.8;24.65
82817;PMS5003;72572;46.824;-71.222;2024-02-28T08:12:02;57.77;44.14;29.14
82817;PMS5003;72572;46.824;-71.222;2024-02-28T08:14:27;43.5;40.35;27.35
82817;PMS5003;72572;46.824;-71.222;2024-02-28T08:16:53;30.3;26.5;18.8
82817;PMS5003;72572;46.824;-71.222;2024-02-28T08:19:16;44.16;37.63;24
82817;PMS5003;72572;46.824;-71.222;2024-02-28T08:21:43;25.05;21.5;13.6
82817;PMS5003;72572;46.824;-71.222;2024-02-28T08:24:07;21.86;20.43;10.9
82817;PMS5003;72572;46.824;-71.222;2024-02-28T08:26:33;31.65;26.95;18.55
82817;PMS5003;72572;46.824;-71.222;2024-02-28T08:28:58;28.76;27.57;16.62
82817;PMS5003;72572;46.824;-71.222;2024-02-28T08:31:24;20.19;19.24;13.48
82817;PMS5003;72572;46.824;-71.222;2024-02-28T08:33:50;38.95;29.57;17.62
82817;PMS5003;72572;46.824;-71.222;2024-02-28T08:36:14;28.4;26.45;16.35
82817;PMS5003;72572;46.824;-71.222;2024-02-28T08:38:40;33.21;30;17.53
82817;PMS5003;72572;46.824;-71.222;2024-02-28T08:41:04;45.15;37.15;22.55
82817;PMS5003;72572;46.824;-71.222;2024-02-28T08:43:30;32.47;27.32;18.21
82817;PMS5003;72572;46.824;-71.222;2024-02-28T08:45:56;27.4;25.75;17
82817;PMS5003;72572;46.824;-71.222;2024-02-28T08:48:21;24.52;22.33;13
82817;PMS5003;72572;46.824;-71.222;2024-02-28T08:50:48;15.62;13.29;8.52
82817;PMS5003;72572;46.824;-71.222;2024-02-28T08:53:11;19.29;17.48;10.52
82817;PMS5003;72572;46.824;-71.222;2024-02-28T08:55:37;18.33;15.57;10.05
82817;PMS5003;72572;46.824;-71.222;2024-02-28T08:58:03;16.33;13.33;8.33
82817;PMS5003;72572;46.824;-71.222;2024-02-28T09:31:56;18.9;15.81;8.29
82817;PMS5003;72572;46.824;-71.222;2024-02-28T09:32:33;17.91;17.45;10.23
82817;PMS5003;72572;46.824;-71.222;2024-02-28T09:32:59;13.5;12.55;9.09
82817;PMS5003;72572;46.824;-71.222;2024-02-28T09:33:22;16.95;14.91;8.82
82817;PMS5003;72572;46.824;-71.222;2024-02-28T09:33:40;22.6;15.1;8.9
82817;PMS5003;72572;46.824;-71.222;2024-02-28T09:34:05;17.23;15.73;9.36
82817;PMS5003;72572;46.824;-71.222;2024-02-28T09:34:19;21.45;20.09;12.27
82817;PMS5003;72572;46.824;-71.222;2024-02-28T09:34:34;18.73;18.73;11.18
82817;PMS5003;72572;46.824;-71.222;2024-02-28T09:34:37;20.64;18.09;11.64
82817;PMS5003;72572;46.824;-71.222;2024-02-28T09:34:51;16.59;16.09;8.41
82817;PMS5003;72572;46.824;-71.222;2024-02-28T09:36:18;14.77;12.95;8.45
82817;PMS5003;72572;46.824;-71.222;2024-02-28T09:38:41;26.76;22.9;16.43
82817;PMS5003;72572;46.824;-71.222;2024-02-28T09:41:08;55.6;44.45;30.55
82817;PMS5003;72572;46.824;-71.222;2024-02-28T09:43:36;52.32;45.84;30.84
82817;PMS5003;72572;46.824;-71.222;2024-02-28T09:45:59;54.4;47.7;33.45
82817;PMS5003;72572;46.824;-71.222;2024-02-28T09:48:25;38.1;35.3;25.45
82817;PMS5003;72572;46.824;-71.222;2024-02-28T09:50:50;27.9;26.75;17.7
82817;PMS5003;72572;46.824;-71.222;2024-02-28T09:53:16;25.86;25.52;18.9
82817;PMS5003;72572;46.824;-71.222;2024-02-28T09:55:41;20.55;18.59;13.14
82817;PMS5003;72572;46.824;-71.222;2024-02-28T09:58:07;16;15.9;8.14
82817;PMS5003;72572;46.824;-71.222;2024-02-28T10:00:32;28.14;26.1;16.14
82817;PMS5003;72572;46.824;-71.222;2024-02-28T10:02:58;29.05;29.05;20.43
82817;PMS5003;72572;46.824;-71.222;2024-02-28T10:05:23;23.86;22.05;16.19
82817;PMS5003;72572;46.824;-71.222;2024-02-28T10:07:49;28.62;26.05;18.81
82817;PMS5003;72572;46.824;-71.222;2024-02-28T10:10:16;37.05;35.15;24.45
82817;PMS5003;72572;46.824;-71.222;2024-02-28T10:12:40;24.48;24.14;14.52
82817;PMS5003;72572;46.824;-71.222;2024-02-28T10:15:03;19.71;19.29;13.38
82817;PMS5003;72572;46.824;-71.222;2024-02-28T10:17:29;26.9;26.29;16.95
82817;PMS5003;72572;46.824;-71.222;2024-02-28T10:19:57;24.1;24.1;17.38
82817;PMS5003;72572;46.824;-71.222;2024-02-28T10:22:19;21.95;19.76;11.57
82817;PMS5003;72572;46.824;-71.222;2024-02-28T10:24:45;19.71;15.19;10.05
82817;PMS5003;72572;46.824;-71.222;2024-02-28T10:27:15;23.73;22.32;14.45
82817;PMS5003;72572;46.824;-71.222;2024-02-28T10:29:35;18.9;17.9;10.38
82817;PMS5003;72572;46.824;-71.222;2024-02-28T10:32:02;17.9;14.52;8.86
82817;PMS5003;72572;46.824;-71.222;2024-02-28T10:34:25;25.1;24.57;16.9
82817;PMS5003;72572;46.824;-71.222;2024-02-28T10:36:51;19.52;16.43;9.19
82817;PMS5003;72572;46.824;-71.222;2024-02-28T10:39:18;16.29;15.52;10.38
82817;PMS5003;72572;46.824;-71.222;2024-02-28T10:41:43;21.48;19.9;13.76
82817;PMS5003;72572;46.824;-71.222;2024-02-28T10:44:08;24.5;23.18;14.86
82817;PMS5003;72572;46.824;-71.222;2024-02-28T10:46:36;32.65;29.65;18.85
82817;PMS5003;72572;46.824;-71.222;2024-02-28T10:49:00;26.14;23.1;15.95
82817;PMS5003;72572;46.824;-71.222;2024-02-28T10:51:26;41.86;36.9;23.33
82817;PMS5003;72572;46.824;-71.222;2024-02-28T10:53:52;40.5;37.95;25.5
82817;PMS5003;72572;46.824;-71.222;2024-02-28T10:56:14;25.19;23;13.81
82817;PMS5003;72572;46.824;-71.222;2024-02-28T10:58:43;16.33;15.43;10.52
82817;PMS5003;72572;46.824;-71.222;2024-02-28T11:01:07;16.86;15.86;10.5
82817;PMS5003;72572;46.824;-71.222;2024-02-28T11:03:33;16.43;15.1;9.38
82817;PMS5003;72572;46.824;-71.222;2024-02-28T11:05:58;23.33;22.19;14.24
82817;PMS5003;72572;46.824;-71.222;2024-02-28T11:08:24;31.75;29;19.2
82817;PMS5003;72572;46.824;-71.222;2024-02-28T11:10:54;20.29;18.9;12.95
82817;PMS5003;72572;46.824;-71.222;2024-02-28T11:13:21;21.9;18.35;10.45
82817;PMS5003;72572;46.824;-71.222;2024-02-28T11:15:39;19.48;18.1;10.1
82817;PMS5003;72572;46.824;-71.222;2024-02-28T11:18:07;38.37;32.89;21.16
82817;PMS5003;72572;46.824;-71.222;2024-02-28T11:20:31;24.38;22.29;13.81
82817;PMS5003;72572;46.824;-71.222;2024-02-28T11:22:56;24.6;21.15;14.2
82817;PMS5003;72572;46.824;-71.222;2024-02-28T11:25:19;30.95;27.14;17.33
82817;PMS5003;72572;46.824;-71.222;2024-02-28T11:27:46;31.19;28.48;18.57
82817;PMS5003;72572;46.824;-71.222;2024-02-28T11:30:11;26.95;25.7;18.5
82817;PMS5003;72572;46.824;-71.222;2024-02-28T11:32:35;36.57;32.71;20.38
82817;PMS5003;72572;46.824;-71.222;2024-02-28T11:35:02;32.23;25.36;17.86
82817;PMS5003;72572;46.824;-71.222;2024-02-28T11:37:27;27.25;21.85;11.85
82817;PMS5003;72572;46.824;-71.222;2024-02-28T11:39:53;23.24;22.52;14.38
82817;PMS5003;72572;46.824;-71.222;2024-02-28T11:42:19;32.05;26.1;14.19
82817;PMS5003;72572;46.824;-71.222;2024-02-28T11:44:42;37.83;31.72;21.83
82817;PMS5003;72572;46.824;-71.222;2024-02-28T11:47:08;29.1;25.15;14.8
82817;PMS5003;72572;46.824;-71.222;2024-02-28T11:49:34;34.33;32.1;20.81
82817;PMS5003;72572;46.824;-71.222;2024-02-28T11:52:00;40.52;33.48;23.38
82817;PMS5003;72572;46.824;-71.222;2024-02-28T11:54:24;28;28;19
82817;PMS5003;72572;46.824;-71.222;2024-02-28T11:56:50;33.19;31.86;21
82817;PMS5003;72572;46.824;-71.222;2024-02-28T11:59:14;39.22;35.22;24.11
82817;PMS5003;72572;46.824;-71.222;2024-02-28T12:01:41;47.28;41.39;27.89
82817;PMS5003;72572;46.824;-71.222;2024-02-28T12:04:06;33;29.55;19.25
82817;PMS5003;72572;46.824;-71.222;2024-02-28T12:06:31;26.43;25.71;17.29
82817;PMS5003;72572;46.824;-71.222;2024-02-28T12:08:57;29;24.9;16.48
82817;PMS5003;72572;46.824;-71.222;2024-02-28T12:11:24;24.14;22.52;14.9
82817;PMS5003;72572;46.824;-71.222;2024-02-28T12:13:48;21.38;18.62;12.1
82817;PMS5003;72572;46.824;-71.222;2024-02-28T12:16:12;28.71;27.05;17.14
82817;PMS5003;72572;46.824;-71.222;2024-02-28T12:18:38;31.9;30.45;21.55
82817;PMS5003;72572;46.824;-71.222;2024-02-28T12:21:04;36.35;35.95;23.5
82817;PMS5003;72572;46.824;-71.222;2024-02-28T12:23:36;30;27.62;19.1
82817;PMS5003;72572;46.824;-71.222;2024-02-28T12:26:02;30.38;27.95;18.95
82817;PMS5003;72572;46.824;-71.222;2024-02-28T12:28:28;28.05;25.62;15.33
82817;PMS5003;72572;46.824;-71.222;2024-02-28T12:30:52;27.52;24.76;14.05
82817;PMS5003;72572;46.824;-71.222;2024-02-28T12:33:20;31.05;29.29;16.19
82817;PMS5003;72572;46.824;-71.222;2024-02-28T12:35:44;27.86;24.05;15.9
82817;PMS5003;72572;46.824;-71.222;2024-02-28T12:38:09;34.95;29.19;16.67
82817;PMS5003;72572;46.824;-71.222;2024-02-28T12:40:35;36.43;29.9;17.29
82817;PMS5003;72572;46.824;-71.222;2024-02-28T12:42:59;22.95;21.38;15.67
82817;PMS5003;72572;46.824;-71.222;2024-02-28T12:45:26;34.05;28.35;16.95
82817;PMS5003;72572;46.824;-71.222;2024-02-28T12:47:50;29.95;27;16.1
82817;PMS5003;72572;46.824;-71.222;2024-02-28T12:50:16;23.95;23.05;13.14
82817;PMS5003;72572;46.824;-71.222;2024-02-28T12:52:43;33.8;28.85;16.2
82817;PMS5003;72572;46.824;-71.222;2024-02-28T12:55:07;34.14;31.95;21.81
82817;PMS5003;72572;46.824;-71.222;2024-02-28T12:57:33;35.64;27.77;17.18
82817;PMS5003;72572;46.824;-71.222;2024-02-28T12:59:57;26.1;22.1;14.76
82817;PMS5003;72572;46.824;-71.222;2024-02-28T13:02:23;26;24.43;13.67
82817;PMS5003;72572;46.824;-71.222;2024-02-28T13:04:49;31.6;24.6;14.3
82817;PMS5003;72572;46.824;-71.222;2024-02-28T13:07:15;25.62;24.05;14
82817;PMS5003;72572;46.824;-71.222;2024-02-28T13:09:39;31;26.3;14.45
82817;PMS5003;72572;46.824;-71.222;2024-02-28T13:12:04;28.35;24.3;15
82817;PMS5003;72572;46.824;-71.222;2024-02-28T13:14:30;33.73;25.64;15.45
82817;PMS5003;72572;46.824;-71.222;2024-02-28T13:16:55;24.29;24.29;16.29
82817;PMS5003;72572;46.824;-71.222;2024-02-28T13:19:20;36.57;28.38;15.43
82817;PMS5003;72572;46.824;-71.222;2024-02-28T13:21:45;44.84;38.79;22.68
82817;PMS5003;72572;46.824;-71.222;2024-02-28T13:24:11;37.95;32;19.05
82817;PMS5003;72572;46.824;-71.222;2024-02-28T13:26:36;31.71;27.1;17.14
82817;PMS5003;72572;46.824;-71.222;2024-02-28T13:29:02;37.52;32.43;18.05
82817;PMS5003;72572;46.824;-71.222;2024-02-28T13:31:29;36.41;33.64;19.05
82817;PMS5003;72572;46.824;-71.222;2024-02-28T13:33:54;30.81;26.52;14.76
82817;PMS5003;72572;46.824;-71.222;2024-02-28T13:36:17;27.7;27.05;17.2
82817;PMS5003;72572;46.824;-71.222;2024-02-28T13:38:45;40.35;37.4;23.85
82817;PMS5003;72572;46.824;-71.222;2024-02-28T13:41:09;39.8;34.55;20.05
82817;PMS5003;72572;46.824;-71.222;2024-02-28T13:43:35;37.25;29.95;15.75
82817;PMS5003;72572;46.824;-71.222;2024-02-28T13:45:59;32.9;30.1;16.9
82817;PMS5003;72572;46.824;-71.222;2024-02-28T13:48:25;43.82;34.23;19